Time;durP1;ratioP1;P1;durP2;ratioP2;P2;SDS_P1;SDS_P2;PMS_P1;PMS_P2;Temp;Humidity;BMP_temperature;BMP_pressure;BME280_temperature;BME280_humidity;BME280_pressure;Samples;Min_cycle;Max_cycle;Signal;HPM_P1;HPM_P2
2021/08/30 00:01:10;;;;;;;14.75;4.55;;;;;;;;;;4980238;28;20062;-50
2021/08/30 00:03:37;;;;;;;14.25;5.30;;;;;;;;;;4981504;28;20039;-56
2021/08/30 00:06:04;;;;;;;10.63;4.95;;;;;;;;;;4977059;28;20034;-53
2021/08/30 00:08:31;;;;;;;13.40;5.20;;;;;;;;;;4963242;28;20035;-50
2021/08/30 00:10:58;;;;;;;13.60;5.10;;;;;;;;;;4962382;28;20043;-56
2021/08/30 00:13:26;;;;;;;11.57;4.97;;;;;;;;;;4977522;28;20038;-56
2021/08/30 00:15:52;;;;;;;11.20;4.80;;;;;;;;;;4981988;28;20109;-53
2021/08/30 00:18:19;;;;;;;12.05;4.35;;;;;;;;;;4978813;28;20039;-54
2021/08/30 00:20:45;;;;;;;15.13;4.68;;;;;;;;;;4982387;28;20049;-54
2021/08/30 00:23:12;;;;;;;11.88;4.50;;;;;;;;;;4974237;28;20058;-51
2021/08/30 00:25:38;;;;;;;13.10;4.68;;;;;;;;;;4962255;28;20031;-54
2021/08/30 00:28:05;;;;;;;12.50;4.93;;;;;;;;;;4969715;28;20061;-55
2021/08/30 00:30:33;;;;;;;13.93;4.95;;;;;;;;;;4980732;28;20062;-54
2021/08/30 00:32:59;;;;;;;12.02;4.28;;;;;;;;;;4968377;28;20051;-55
2021/08/30 00:35:26;;;;;;;10.13;4.38;;;;;;;;;;4961050;28;20043;-54
2021/08/30 00:37:53;;;;;;;10.13;4.45;;;;;;;;;;4964323;28;20038;-56
2021/08/30 00:40:19;;;;;;;11.93;4.53;;;;;;;;;;4983131;28;20043;-52
2021/08/30 00:42:46;;;;;;;10.70;4.65;;;;;;;;;;4972888;28;20094;-52
2021/08/30 00:45:13;;;;;;;11.13;4.50;;;;;;;;;;4965287;28;20043;-53
2021/08/30 00:47:42;;;;;;;11.57;4.57;;;;;;;;;;4956485;28;20061;-54
2021/08/30 00:50:10;;;;;;;14.40;4.68;;;;;;;;;;4974592;28;20047;-54
2021/08/30 00:52:36;;;;;;;12.65;4.65;;;;;;;;;;4966166;28;20110;-51
2021/08/30 00:55:03;;;;;;;12.73;4.70;;;;;;;;;;4980637;28;20038;-54
2021/08/30 00:57:30;;;;;;;14.00;4.30;;;;;;;;;;4986510;28;20038;-52
2021/08/30 00:59:56;;;;;;;12.50;4.75;;;;;;;;;;4980823;28;20050;-53
2021/08/30 01:02:22;;;;;;;12.93;5.25;;;;;;;;;;4983573;28;20038;-54
2021/08/30 01:04:51;;;;;;;15.32;4.90;;;;;;;;;;4979574;28;20141;-56
2021/08/30 01:07:27;;;;;;;12.18;4.32;;;;;;;;;;4983897;28;20128;-55
2021/08/30 01:09:57;;;;;;;11.57;4.63;;;;;;;;;;4968630;28;20043;-54
2021/08/30 01:12:25;;;;;;;12.18;4.82;;;;;;;;;;4982601;28;20030;-50
2021/08/30 01:14:54;;;;;;;12.57;4.60;;;;;;;;;;4970172;28;20039;-53
2021/08/30 01:17:21;;;;;;;10.88;4.50;;;;;;;;;;4965111;28;20047;-54
2021/08/30 01:19:52;;;;;;;10.75;5.03;;;;;;;;;;4960531;28;20035;-54
2021/08/30 01:22:20;;;;;;;10.75;4.22;;;;;;;;;;4961884;28;20062;-54
2021/08/30 01:24:47;;;;;;;14.02;5.28;;;;;;;;;;4962027;28;20173;-53
2021/08/30 01:27:14;;;;;;;12.90;5.03;;;;;;;;;;4967250;28;20038;-54
2021/08/30 01:29:44;;;;;;;12.27;5.30;;;;;;;;;;4963700;28;20054;-55
2021/08/30 01:32:21;;;;;;;12.80;4.85;;;;;;;;;;4980849;28;20050;-49
2021/08/30 01:34:48;;;;;;;11.50;5.15;;;;;;;;;;4974725;28;20035;-55
2021/08/30 01:37:14;;;;;;;12.20;5.07;;;;;;;;;;4964351;28;20061;-53
2021/08/30 01:39:42;;;;;;;11.85;4.45;;;;;;;;;;4959730;28;20051;-54
2021/08/30 01:42:08;;;;;;;11.67;4.83;;;;;;;;;;4972875;28;20136;-55
2021/08/30 01:44:35;;;;;;;11.77;4.93;;;;;;;;;;4982267;28;20292;-57
2021/08/30 01:47:02;;;;;;;12.35;4.53;;;;;;;;;;4960388;28;20043;-53
2021/08/30 01:49:32;;;;;;;13.63;4.80;;;;;;;;;;4963695;28;20076;-54
2021/08/30 01:51:59;;;;;;;10.55;4.57;;;;;;;;;;4961268;28;20057;-54
2021/08/30 01:54:26;;;;;;;12.15;4.75;;;;;;;;;;4963217;28;20042;-52
2021/08/30 01:56:54;;;;;;;12.32;5.43;;;;;;;;;;4962072;28;20062;-53
2021/08/30 02:02:06;;;;;;;10.75;5.10;;;;;;;;;;4971971;28;20038;-55
2021/08/30 02:04:33;;;;;;;16.42;5.47;;;;;;;;;;4968993;28;20061;-55
2021/08/30 02:07:00;;;;;;;12.30;5.07;;;;;;;;;;4962789;28;20036;-55
2021/08/30 02:09:27;;;;;;;12.43;5.18;;;;;;;;;;4983085;28;20042;-54
2021/08/30 02:11:53;;;;;;;13.43;5.60;;;;;;;;;;4946083;28;20046;-54
2021/08/30 02:14:20;;;;;;;15.93;5.30;;;;;;;;;;4947691;28;20133;-56
2021/08/30 02:16:49;;;;;;;10.73;5.25;;;;;;;;;;4951078;28;20060;-55
2021/08/30 02:19:21;;;;;;;14.32;5.50;;;;;;;;;;4966775;28;20108;-55
2021/08/30 02:21:51;;;;;;;15.70;5.15;;;;;;;;;;4957540;28;20141;-56
2021/08/30 02:24:21;;;;;;;12.73;5.20;;;;;;;;;;4946560;28;20045;-53
2021/08/30 02:26:51;;;;;;;12.13;5.18;;;;;;;;;;4948184;28;20046;-53
2021/08/30 02:29:21;;;;;;;12.25;5.40;;;;;;;;;;4965584;28;20054;-55
2021/08/30 02:31:49;;;;;;;13.75;5.88;;;;;;;;;;4964373;28;20038;-55
2021/08/30 02:34:17;;;;;;;14.20;5.32;;;;;;;;;;4985325;28;20059;-54
2021/08/30 02:36:44;;;;;;;14.15;5.22;;;;;;;;;;4982207;28;20039;-55
2021/08/30 02:39:12;;;;;;;12.18;5.28;;;;;;;;;;4962801;28;20047;-55
2021/08/30 02:41:39;;;;;;;14.50;6.10;;;;;;;;;;4945895;28;20054;-53
2021/08/30 02:44:05;;;;;;;16.85;5.70;;;;;;;;;;4945231;28;20137;-54
2021/08/30 02:46:32;;;;;;;14.27;5.65;;;;;;;;;;4946577;28;20121;-55
2021/08/30 02:48:59;;;;;;;15.13;5.28;;;;;;;;;;4958362;28;20124;-53
2021/08/30 02:51:29;;;;;;;11.70;5.07;;;;;;;;;;4965891;28;20058;-54
2021/08/30 02:53:56;;;;;;;11.13;5.80;;;;;;;;;;4958221;28;20031;-53
2021/08/30 02:56:23;;;;;;;12.10;5.55;;;;;;;;;;4965905;28;20045;-56
2021/08/30 02:58:51;;;;;;;16.17;5.85;;;;;;;;;;4951737;28;20093;-55
2021/08/30 03:01:19;;;;;;;13.38;5.47;;;;;;;;;;4946495;28;20055;-55
2021/08/30 03:03:45;;;;;;;14.43;5.35;;;;;;;;;;4954179;28;20043;-54
2021/08/30 03:06:12;;;;;;;11.77;5.57;;;;;;;;;;4966994;28;20122;-54
2021/08/30 03:08:40;;;;;;;12.38;5.43;;;;;;;;;;4962704;28;20031;-50
2021/08/30 03:11:09;;;;;;;12.07;5.60;;;;;;;;;;4975788;28;20046;-54
2021/08/30 03:13:35;;;;;;;;;;;;;;;;;;4978674;28;20109;-54
2021/08/30 03:16:04;;;;;;;10.88;5.32;;;;;;;;;;4980785;28;19933;-57
2021/08/30 03:18:31;;;;;;;12.73;5.40;;;;;;;;;;4975945;28;20039;-51
2021/08/30 03:20:58;;;;;;;12.45;5.40;;;;;;;;;;4980303;28;20042;-54
2021/08/30 03:23:25;;;;;;;14.32;5.32;;;;;;;;;;4981848;28;20065;-54
2021/08/30 03:25:51;;;;;;;14.52;5.97;;;;;;;;;;4962565;28;20039;-56
2021/08/30 03:28:18;;;;;;;12.95;5.95;;;;;;;;;;4964611;28;20056;-52
2021/08/30 03:30:47;;;;;;;17.27;5.55;;;;;;;;;;4965110;28;20042;-53
2021/08/30 03:33:15;;;;;;;14.77;5.97;;;;;;;;;;4965937;28;20129;-54
2021/08/30 03:35:42;;;;;;;12.27;5.95;;;;;;;;;;5005153;28;20102;-52
2021/08/30 03:38:09;;;;;;;12.70;6.00;;;;;;;;;;5004815;28;20045;-53
2021/08/30 03:40:36;;;;;;;14.02;5.97;;;;;;;;;;4999258;28;20050;-54
2021/08/30 03:43:03;;;;;;;15.32;5.63;;;;;;;;;;4987696;28;20061;-53
2021/08/30 03:45:30;;;;;;;12.73;6.38;;;;;;;;;;4977149;28;20053;-51
2021/08/30 03:47:58;;;;;;;12.35;6.55;;;;;;;;;;4982619;28;20046;-55
2021/08/30 03:50:26;;;;;;;15.90;5.97;;;;;;;;;;4974414;28;20038;-56
2021/08/30 03:52:53;;;;;;;14.63;5.82;;;;;;;;;;4982947;28;20039;-55
2021/08/30 03:55:20;;;;;;;18.10;7.00;;;;;;;;;;4991372;28;20120;-56
2021/08/30 03:57:49;;;;;;;17.10;6.38;;;;;;;;;;4982503;28;20109;-53
2021/08/30 04:00:15;;;;;;;14.90;6.05;;;;;;;;;;4978857;28;20054;-56
2021/08/30 04:02:42;;;;;;;18.65;5.93;;;;;;;;;;5000873;28;20046;-53
2021/08/30 04:05:10;;;;;;;17.63;7.13;;;;;;;;;;4984718;28;20038;-49
2021/08/30 04:07:40;;;;;;;13.50;6.70;;;;;;;;;;4983809;28;20046;-55
2021/08/30 04:10:07;;;;;;;14.82;6.57;;;;;;;;;;4984041;28;20319;-53
2021/08/30 04:12:33;;;;;;;16.42;6.65;;;;;;;;;;4995156;28;20057;-52
2021/08/30 04:15:00;;;;;;;17.08;6.22;;;;;;;;;;5004060;28;20074;-55
2021/08/30 04:17:27;;;;;;;16.58;6.63;;;;;;;;;;5000159;28;20084;-55
2021/08/30 04:19:53;;;;;;;16.23;7.10;;;;;;;;;;5005101;28;20048;-55
2021/08/30 04:22:20;;;;;;;23.02;6.70;;;;;;;;;;4985758;28;20030;-51
2021/08/30 04:24:47;;;;;;;21.27;7.57;;;;;;;;;;5007003;28;20141;-52
2021/08/30 04:27:14;;;;;;;16.53;6.63;;;;;;;;;;5020202;28;20100;-53
2021/08/30 04:29:41;;;;;;;15.23;7.10;;;;;;;;;;5006232;28;20271;-52
2021/08/30 04:32:09;;;;;;;13.52;6.80;;;;;;;;;;5012534;28;20042;-54
2021/08/30 04:34:36;;;;;;;;;;;;;;;;;;4987912;28;20131;-51
2021/08/30 04:37:03;;;;;;;16.98;6.72;;;;;;;;;;4987159;28;19936;-52
2021/08/30 04:39:31;;;;;;;14.63;6.75;;;;;;;;;;5006603;28;20042;-53
2021/08/30 04:41:59;;;;;;;16.80;7.50;;;;;;;;;;5001914;28;20141;-52
2021/08/30 04:44:25;;;;;;;20.75;6.65;;;;;;;;;;5005118;28;20111;-52
2021/08/30 04:46:52;;;;;;;20.63;7.80;;;;;;;;;;5021763;28;20053;-51
2021/08/30 04:49:19;;;;;;;17.92;7.38;;;;;;;;;;4967404;28;20043;-53
2021/08/30 04:51:45;;;;;;;20.70;7.07;;;;;;;;;;4967177;28;20105;-54
2021/08/30 04:54:11;;;;;;;19.40;7.45;;;;;;;;;;4980261;28;20057;-54
2021/08/30 04:56:38;;;;;;;19.13;7.38;;;;;;;;;;4984143;28;20043;-52
2021/08/30 04:59:06;;;;;;;19.40;7.82;;;;;;;;;;4975785;28;20120;-53
2021/08/30 05:01:32;;;;;;;19.65;8.63;;;;;;;;;;4982717;28;20049;-53
2021/08/30 05:03:59;;;;;;;22.75;7.63;;;;;;;;;;4980920;28;20039;-50
2021/08/30 05:06:25;;;;;;;16.27;7.03;;;;;;;;;;4966757;28;20038;-53
2021/08/30 05:08:52;;;;;;;18.30;8.23;;;;;;;;;;4973937;28;20066;-56
2021/08/30 05:11:18;;;;;;;20.65;9.02;;;;;;;;;;4992791;28;20060;-54
2021/08/30 05:13:45;;;;;;;18.90;7.35;;;;;;;;;;5012456;28;20047;-53
2021/08/30 05:16:14;;;;;;;18.15;8.00;;;;;;;;;;4980839;28;20062;-53
2021/08/30 05:18:41;;;;;;;22.80;8.57;;;;;;;;;;4993198;28;20047;-54
2021/08/30 05:21:07;;;;;;;24.73;8.73;;;;;;;;;;4981420;28;20050;-53
2021/08/30 05:23:34;;;;;;;20.48;8.05;;;;;;;;;;4980567;28;20042;-53
2021/08/30 05:26:01;;;;;;;17.75;7.78;;;;;;;;;;4982134;28;20058;-55
2021/08/30 05:28:28;;;;;;;22.30;8.77;;;;;;;;;;4980309;28;20174;-52
2021/08/30 05:30:55;;;;;;;21.95;8.23;;;;;;;;;;4980872;28;20074;-54
2021/08/30 05:33:23;;;;;;;21.30;8.25;;;;;;;;;;4984059;28;20097;-53
2021/08/30 05:35:49;;;;;;;22.93;9.13;;;;;;;;;;4980610;28;20026;-52
2021/08/30 05:38:16;;;;;;;24.25;8.30;;;;;;;;;;5002305;28;20298;-52
2021/08/30 05:40:45;;;;;;;23.27;8.63;;;;;;;;;;4974315;28;20061;-51
2021/08/30 05:43:11;;;;;;;25.30;8.93;;;;;;;;;;4984323;28;20042;-52
2021/08/30 05:45:37;;;;;;;25.98;8.93;;;;;;;;;;4976461;28;20121;-55
2021/08/30 05:48:04;;;;;;;24.75;9.20;;;;;;;;;;4979008;28;20057;-52
2021/08/30 05:50:32;;;;;;;23.27;9.32;;;;;;;;;;4978272;28;20045;-50
2021/08/30 05:52:59;;;;;;;27.45;8.52;;;;;;;;;;4980631;28;20027;-55
2021/08/30 05:55:25;;;;;;;24.92;9.13;;;;;;;;;;4981917;28;20042;-54
2021/08/30 05:57:52;;;;;;;22.45;8.38;;;;;;;;;;4982168;28;20116;-53
2021/08/30 06:00:18;;;;;;;24.58;9.48;;;;;;;;;;4979241;28;20165;-54
2021/08/30 06:02:45;;;;;;;23.58;8.52;;;;;;;;;;4981052;28;20038;-53
2021/08/30 06:05:11;;;;;;;23.33;9.15;;;;;;;;;;4978629;28;20118;-55
2021/08/30 06:07:41;;;;;;;24.15;8.65;;;;;;;;;;4980108;28;20066;-54
2021/08/30 06:10:08;;;;;;;22.77;8.52;;;;;;;;;;4995935;28;20042;-55
2021/08/30 06:12:35;;;;;;;18.45;8.23;;;;;;;;;;4963131;28;20156;-52
2021/08/30 06:15:02;;;;;;;24.33;9.40;;;;;;;;;;4965128;28;20057;-53
2021/08/30 06:17:28;;;;;;;22.20;8.85;;;;;;;;;;4997484;28;20138;-54
2021/08/30 06:19:55;;;;;;;21.17;9.07;;;;;;;;;;5023847;28;20045;-55
2021/08/30 06:22:22;;;;;;;20.70;8.57;;;;;;;;;;4999307;28;20049;-53
2021/08/30 06:24:51;;;;;;;21.88;8.00;;;;;;;;;;5023186;28;20050;-53
2021/08/30 06:27:20;;;;;;;25.20;9.00;;;;;;;;;;5001006;28;20033;-54
2021/08/30 06:29:46;;;;;;;21.88;8.60;;;;;;;;;;5004351;28;20120;-50
2021/08/30 06:32:13;;;;;;;22.15;9.10;;;;;;;;;;4982454;28;20065;-53
2021/08/30 06:34:39;;;;;;;21.10;8.32;;;;;;;;;;4986032;28;20041;-56
2021/08/30 06:37:06;;;;;;;18.98;9.20;;;;;;;;;;4988613;28;20053;-55
2021/08/30 06:39:33;;;;;;;27.75;8.57;;;;;;;;;;5006233;28;20195;-50
2021/08/30 06:42:01;;;;;;;23.90;8.65;;;;;;;;;;5020223;28;20050;-56
2021/08/30 06:44:27;;;;;;;24.53;9.27;;;;;;;;;;5005939;28;20064;-55
2021/08/30 06:46:53;;;;;;;27.73;8.63;;;;;;;;;;5020041;28;20050;-52
2021/08/30 06:49:20;;;;;;;22.65;8.35;;;;;;;;;;5006546;28;20042;-53
2021/08/30 06:51:46;;;;;;;23.08;9.07;;;;;;;;;;5001930;28;20034;-56
2021/08/30 06:54:13;;;;;;;24.50;9.88;;;;;;;;;;5004173;28;20034;-52
2021/08/30 06:56:39;;;;;;;19.02;8.43;;;;;;;;;;4984971;28;20177;-54
2021/08/30 06:59:07;;;;;;;24.13;9.95;;;;;;;;;;4980173;28;20043;-54
2021/08/30 07:01:34;;;;;;;23.55;8.65;;;;;;;;;;4985331;28;20049;-56
2021/08/30 07:04:01;;;;;;;27.20;9.48;;;;;;;;;;4979160;28;20049;-55
2021/08/30 07:06:28;;;;;;;23.88;8.55;;;;;;;;;;4982767;28;20054;-55
2021/08/30 07:08:55;;;;;;;26.60;9.77;;;;;;;;;;4993445;28;20030;-56
2021/08/30 07:11:21;;;;;;;25.27;8.80;;;;;;;;;;4989888;28;20053;-53
2021/08/30 07:13:48;;;;;;;23.50;9.32;;;;;;;;;;5002564;28;20100;-52
2021/08/30 07:16:16;;;;;;;26.65;9.63;;;;;;;;;;5006300;28;20030;-49
2021/08/30 07:18:44;;;;;;;31.37;9.87;;;;;;;;;;4987585;28;20035;-50
2021/08/30 07:21:11;;;;;;;27.57;10.27;;;;;;;;;;4982821;28;20324;-55
2021/08/30 07:23:37;;;;;;;21.98;9.85;;;;;;;;;;4991905;28;20307;-55
2021/08/30 07:26:04;;;;;;;20.23;8.55;;;;;;;;;;5004882;28;20048;-55
2021/08/30 07:28:30;;;;;;;24.10;9.15;;;;;;;;;;4997129;28;20054;-52
2021/08/30 07:30:57;;;;;;;17.67;8.55;;;;;;;;;;4984777;28;20038;-55
2021/08/30 07:33:24;;;;;;;25.30;10.00;;;;;;;;;;4998974;28;20054;-55
2021/08/30 07:35:51;;;;;;;21.50;8.57;;;;;;;;;;4980205;28;20049;-53
2021/08/30 07:38:18;;;;;;;20.10;9.35;;;;;;;;;;4965784;28;20046;-52
2021/08/30 07:40:44;;;;;;;28.90;9.55;;;;;;;;;;4997173;28;20046;-54
2021/08/30 07:43:11;;;;;;;21.88;8.93;;;;;;;;;;5021781;28;20049;-56
2021/08/30 07:45:37;;;;;;;21.48;8.93;;;;;;;;;;5000812;28;20038;-54
2021/08/30 07:48:05;;;;;;;24.27;9.00;;;;;;;;;;5004665;28;20049;-51
2021/08/30 07:50:33;;;;;;;21.25;7.97;;;;;;;;;;5005410;28;20042;-53
2021/08/30 07:53:00;;;;;;;19.70;8.37;;;;;;;;;;4984885;28;20046;-52
2021/08/30 07:55:28;;;;;;;23.05;8.55;;;;;;;;;;4983535;28;20053;-59
2021/08/30 07:57:55;;;;;;;;;;;;;;;;;;4988540;28;20144;-58
2021/08/30 08:00:21;;;;;;;25.15;8.63;;;;;;;;;;4991328;28;19929;-59
2021/08/30 08:02:48;;;;;;;20.42;7.18;;;;;;;;;;5024597;28;20096;-59
2021/08/30 08:05:14;;;;;;;22.23;7.45;;;;;;;;;;5013649;28;20062;-53
2021/08/30 08:07:45;;;;;;;19.98;8.45;;;;;;;;;;4987502;28;20042;-54
2021/08/30 08:10:11;;;;;;;23.42;8.18;;;;;;;;;;4998134;28;20109;-55
2021/08/30 08:12:38;;;;;;;20.98;7.55;;;;;;;;;;4965808;28;20046;-54
2021/08/30 08:15:05;;;;;;;16.88;7.75;;;;;;;;;;4967749;28;20057;-54
2021/08/30 08:17:33;;;;;;;23.42;8.52;;;;;;;;;;5008298;28;20033;-54
2021/08/30 08:20:00;;;;;;;19.42;8.05;;;;;;;;;;5007279;28;20049;-53
2021/08/30 08:22:27;;;;;;;18.70;7.70;;;;;;;;;;5020246;28;20062;-56
2021/08/30 08:24:57;;;;;;;23.92;8.32;;;;;;;;;;5005411;28;20139;-52
2021/08/30 08:27:24;;;;;;;20.83;8.43;;;;;;;;;;5002313;28;20053;-55
2021/08/30 08:29:50;;;;;;;24.33;8.15;;;;;;;;;;5007803;28;20054;-55
2021/08/30 08:32:16;;;;;;;15.43;7.65;;;;;;;;;;5003751;28;20037;-52
2021/08/30 08:34:43;;;;;;;16.83;7.57;;;;;;;;;;5006804;28;20073;-56
2021/08/30 08:37:09;;;;;;;21.52;7.10;;;;;;;;;;4986816;28;20050;-51
2021/08/30 08:39:36;;;;;;;16.83;7.43;;;;;;;;;;4985468;28;20034;-57
2021/08/30 08:42:05;;;;;;;16.60;7.65;;;;;;;;;;4980894;28;20041;-56
2021/08/30 08:44:31;;;;;;;19.25;7.32;;;;;;;;;;4982229;28;20042;-56
2021/08/30 08:46:58;;;;;;;16.02;6.50;;;;;;;;;;4991023;28;20061;-54
2021/08/30 08:49:27;;;;;;;16.20;6.40;;;;;;;;;;5006956;28;20135;-57
2021/08/30 08:51:54;;;;;;;14.70;6.15;;;;;;;;;;5018778;28;20044;-55
2021/08/30 08:54:20;;;;;;;25.25;7.20;;;;;;;;;;5006110;28;20049;-56
2021/08/30 08:56:47;;;;;;;16.00;6.32;;;;;;;;;;4985929;28;20042;-54
2021/08/30 08:59:15;;;;;;;16.05;6.30;;;;;;;;;;5006172;28;20045;-55
2021/08/30 09:01:42;;;;;;;15.00;5.88;;;;;;;;;;5002573;28;20056;-53
2021/08/30 09:04:08;;;;;;;23.92;7.05;;;;;;;;;;4964318;28;20047;-56
2021/08/30 09:06:39;;;;;;;15.55;7.10;;;;;;;;;;4965297;28;20050;-50
2021/08/30 09:09:06;;;;;;;16.75;6.55;;;;;;;;;;4979657;28;20052;-53
2021/08/30 09:11:34;;;;;;;17.73;6.10;;;;;;;;;;4981876;28;20027;-52
2021/08/30 09:14:01;;;;;;;12.07;5.68;;;;;;;;;;4974333;28;20070;-54
2021/08/30 09:16:29;;;;;;;15.65;6.03;;;;;;;;;;4982122;28;20038;-53
2021/08/30 09:19:06;;;;;;;13.93;5.73;;;;;;;;;;4970201;28;20153;-50
2021/08/30 09:21:33;;;;;;;13.82;5.60;;;;;;;;;;4967099;28;20343;-50
2021/08/30 09:24:14;;;;;;;12.65;5.95;;;;;;;;;;4974537;28;20038;-53
2021/08/30 09:26:44;;;;;;;15.70;6.32;;;;;;;;;;4987091;28;20057;-56
2021/08/30 09:29:15;;;;;;;16.17;5.70;;;;;;;;;;4988903;28;20043;-55
2021/08/30 09:31:43;;;;;;;14.05;5.68;;;;;;;;;;4983613;28;20050;-55
2021/08/30 09:34:11;;;;;;;15.17;5.27;;;;;;;;;;4991478;28;20057;-53
2021/08/30 09:36:41;;;;;;;18.88;5.45;;;;;;;;;;5002513;28;20284;-53
2021/08/30 09:39:08;;;;;;;17.40;5.97;;;;;;;;;;4981672;28;20042;-54
2021/08/30 09:41:36;;;;;;;20.02;6.30;;;;;;;;;;4985253;28;20056;-51
2021/08/30 09:44:03;;;;;;;15.30;5.85;;;;;;;;;;4977114;28;20128;-51
2021/08/30 09:46:31;;;;;;;14.25;6.38;;;;;;;;;;4966945;28;20061;-54
2021/08/30 09:49:02;;;;;;;15.03;6.00;;;;;;;;;;4964390;28;20066;-55
2021/08/30 09:51:29;;;;;;;15.88;5.75;;;;;;;;;;4983973;28;20034;-53
2021/08/30 09:53:55;;;;;;;14.10;5.65;;;;;;;;;;4981748;28;20038;-48
2021/08/30 09:56:22;;;;;;;14.35;5.60;;;;;;;;;;4986729;28;20061;-52
2021/08/30 09:58:50;;;;;;;15.75;5.70;;;;;;;;;;4986291;28;20034;-53
2021/08/30 10:01:17;;;;;;;14.45;5.57;;;;;;;;;;4982601;28;20057;-55
2021/08/30 10:03:44;;;;;;;11.82;5.05;;;;;;;;;;5003595;28;20042;-52
2021/08/30 10:06:12;;;;;;;16.27;5.25;;;;;;;;;;4964977;28;20043;-54
2021/08/30 10:08:38;;;;;;;14.90;5.10;;;;;;;;;;4968143;28;20063;-55
2021/08/30 10:11:05;;;;;;;16.85;5.47;;;;;;;;;;4977468;28;20038;-52
2021/08/30 10:13:32;;;;;;;10.35;4.82;;;;;;;;;;4986272;28;20074;-55
2021/08/30 10:15:58;;;;;;;12.80;5.57;;;;;;;;;;4982018;28;20042;-54
2021/08/30 10:18:25;;;;;;;11.65;5.05;;;;;;;;;;4985639;28;20120;-52
2021/08/30 10:20:54;;;;;;;11.80;5.22;;;;;;;;;;4979124;28;20097;-55
2021/08/30 10:23:22;;;;;;;16.63;5.15;;;;;;;;;;4984363;28;20053;-54
2021/08/30 10:25:59;;;;;;;12.52;4.35;;;;;;;;;;4981136;28;20039;-55
2021/08/30 10:28:34;;;;;;;9.25;4.82;;;;;;;;;;4984474;28;20043;-54
2021/08/30 10:31:01;;;;;;;11.75;4.13;;;;;;;;;;4982124;28;20038;-53
2021/08/30 10:33:36;;;;;;;10.55;4.78;;;;;;;;;;4982858;28;20054;-55
2021/08/30 10:36:11;;;;;;;12.20;4.90;;;;;;;;;;4977512;28;20070;-54
2021/08/30 10:38:40;;;;;;;12.35;4.75;;;;;;;;;;4981556;28;20062;-55
2021/08/30 10:41:15;;;;;;;10.88;4.70;;;;;;;;;;4980706;28;20180;-55
2021/08/30 10:43:42;;;;;;;9.23;4.32;;;;;;;;;;4986505;28;20042;-56
2021/08/30 10:46:13;;;;;;;17.45;4.68;;;;;;;;;;4981683;28;20030;-47
2021/08/30 10:48:40;;;;;;;12.40;4.68;;;;;;;;;;4985589;28;20050;-55
2021/08/30 10:51:13;;;;;;;13.32;5.03;;;;;;;;;;4981422;28;20157;-54
2021/08/30 10:53:40;;;;;;;9.60;5.20;;;;;;;;;;4985604;28;20038;-53
2021/08/30 10:56:09;;;;;;;14.00;5.05;;;;;;;;;;4985802;28;20046;-54
2021/08/30 10:58:49;;;;;;;9.75;4.22;;;;;;;;;;4963749;28;20122;-53
2021/08/30 11:01:20;;;;;;;11.68;3.58;;;;;;;;;;4965642;28;20051;-58
2021/08/30 11:03:54;;;;;;;9.25;3.88;;;;;;;;;;4982915;28;20056;-55
2021/08/30 11:06:20;;;;;;;9.90;4.00;;;;;;;;;;5003012;28;20042;-54
2021/08/30 11:08:49;;;;;;;9.27;3.92;;;;;;;;;;4980267;28;20054;-52
2021/08/30 11:11:22;;;;;;;9.75;4.05;;;;;;;;;;4984897;28;20038;-53
2021/08/30 11:13:59;;;;;;;10.15;4.20;;;;;;;;;;4981476;28;20046;-54
2021/08/30 11:16:26;;;;;;;10.70;5.30;;;;;;;;;;4975254;28;20070;-53
2021/08/30 11:18:54;;;;;;;11.80;4.40;;;;;;;;;;4995670;28;20120;-56
2021/08/30 11:21:46;;;;;;;10.55;4.97;;;;;;;;;;4969016;28;20039;-53
2021/08/30 11:24:28;;;;;;;12.63;5.35;;;;;;;;;;4962934;28;20050;-56
2021/08/30 11:26:56;;;;;;;18.60;5.80;;;;;;;;;;5001903;28;20052;-54
2021/08/30 11:29:23;;;;;;;12.98;5.47;;;;;;;;;;4981395;28;20038;-56
2021/08/30 11:31:50;;;;;;;16.42;4.70;;;;;;;;;;4984532;28;20050;-56
2021/08/30 11:34:27;;;;;;;15.93;5.15;;;;;;;;;;4971080;28;20034;-54
2021/08/30 11:36:54;;;;;;;11.57;5.20;;;;;;;;;;4982095;28;20038;-55
2021/08/30 11:39:21;;;;;;;14.85;5.75;;;;;;;;;;4979607;28;20060;-52
2021/08/30 11:41:51;;;;;;;13.50;5.22;;;;;;;;;;4984262;28;20054;-51
2021/08/30 11:44:17;;;;;;;13.98;5.47;;;;;;;;;;4981548;28;20042;-54
2021/08/30 11:46:45;;;;;;;11.90;4.93;;;;;;;;;;4986202;28;20042;-57
2021/08/30 11:49:12;;;;;;;12.27;4.70;;;;;;;;;;4982785;28;20050;-55
2021/08/30 11:51:39;;;;;;;11.15;4.47;;;;;;;;;;4984796;28;20053;-56
2021/08/30 11:54:09;;;;;;;10.65;4.78;;;;;;;;;;4978267;28;20046;-55
2021/08/30 11:56:35;;;;;;;8.75;4.28;;;;;;;;;;4981630;28;20070;-54
2021/08/30 11:59:05;;;;;;;11.68;4.45;;;;;;;;;;4983947;28;20034;-56
2021/08/30 12:01:36;;;;;;;11.88;4.40;;;;;;;;;;4995182;28;20059;-51
2021/08/30 12:04:02;;;;;;;9.32;3.90;;;;;;;;;;4980171;28;20043;-54
2021/08/30 12:06:30;;;;;;;14.68;4.50;;;;;;;;;;4984966;28;20109;-56
2021/08/30 12:08:58;;;;;;;8.68;4.30;;;;;;;;;;4985984;28;20071;-52
2021/08/30 12:11:24;;;;;;;11.00;4.10;;;;;;;;;;4991950;28;20078;-54
2021/08/30 12:14:00;;;;;;;13.45;4.25;;;;;;;;;;5001002;28;20097;-57
2021/08/30 12:16:28;;;;;;;7.15;3.65;;;;;;;;;;4980399;28;20165;-56
2021/08/30 12:18:56;;;;;;;8.52;3.63;;;;;;;;;;4983190;28;20042;-56
2021/08/30 12:21:30;;;;;;;8.43;3.40;;;;;;;;;;4979324;28;20057;-57
2021/08/30 12:23:56;;;;;;;7.05;3.22;;;;;;;;;;4983692;28;20053;-53
2021/08/30 12:26:23;;;;;;;6.82;3.65;;;;;;;;;;4980254;28;20124;-55
2021/08/30 12:28:53;;;;;;;7.07;3.15;;;;;;;;;;4984617;28;20054;-52
2021/08/30 12:31:23;;;;;;;12.20;3.63;;;;;;;;;;4980584;28;20100;-52
2021/08/30 12:34:00;;;;;;;12.75;3.88;;;;;;;;;;4984622;28;20042;-56
2021/08/30 12:36:27;;;;;;;8.75;3.63;;;;;;;;;;4976636;28;20039;-54
2021/08/30 12:38:53;;;;;;;6.47;3.38;;;;;;;;;;4981089;28;20031;-53
2021/08/30 12:41:20;;;;;;;9.93;3.83;;;;;;;;;;4980917;28;20054;-53
2021/08/30 12:43:47;;;;;;;8.57;3.58;;;;;;;;;;4982617;28;20038;-55
2021/08/30 12:46:14;;;;;;;7.78;3.88;;;;;;;;;;4987886;28;20042;-54
2021/08/30 12:48:41;;;;;;;9.88;3.75;;;;;;;;;;4986929;28;20048;-56
2021/08/30 12:51:10;;;;;;;8.95;3.42;;;;;;;;;;4980449;28;20166;-53
2021/08/30 12:53:36;;;;;;;11.43;3.60;;;;;;;;;;4984512;28;20070;-54
2021/08/30 12:56:03;;;;;;;9.35;3.83;;;;;;;;;;4967986;28;20080;-53
2021/08/30 12:58:30;;;;;;;7.57;4.03;;;;;;;;;;4987265;28;20049;-53
2021/08/30 13:00:58;;;;;;;12.38;4.13;;;;;;;;;;5003999;28;20042;-56
2021/08/30 13:03:24;;;;;;;9.05;3.72;;;;;;;;;;4954943;28;20201;-54
2021/08/30 13:05:51;;;;;;;9.35;3.85;;;;;;;;;;4947213;28;20055;-55
2021/08/30 13:08:19;;;;;;;8.70;3.63;;;;;;;;;;4977691;28;20046;-54
2021/08/30 13:10:46;;;;;;;8.10;3.72;;;;;;;;;;4995872;28;20250;-53
2021/08/30 13:13:13;;;;;;;7.25;3.97;;;;;;;;;;4962028;28;20049;-52
2021/08/30 13:15:41;;;;;;;9.70;4.07;;;;;;;;;;4966010;28;20117;-55
2021/08/30 13:18:08;;;;;;;12.10;4.10;;;;;;;;;;4974355;28;20104;-53
2021/08/30 13:20:38;;;;;;;8.57;4.05;;;;;;;;;;5003518;28;20119;-56
2021/08/30 13:23:05;;;;;;;7.10;3.75;;;;;;;;;;4979476;28;20097;-53
2021/08/30 13:25:36;;;;;;;9.02;4.00;;;;;;;;;;4984294;28;20097;-54
2021/08/30 13:28:03;;;;;;;10.95;4.40;;;;;;;;;;4980587;28;20038;-54
2021/08/30 13:30:29;;;;;;;14.57;5.63;;;;;;;;;;4982958;28;20116;-57
2021/08/30 13:32:56;;;;;;;12.35;5.25;;;;;;;;;;4978628;28;20039;-54
2021/08/30 13:35:23;;;;;;;11.63;4.55;;;;;;;;;;4984252;28;20039;-54
2021/08/30 13:37:53;;;;;;;12.25;4.82;;;;;;;;;;4968826;28;20039;-56
2021/08/30 13:40:20;;;;;;;10.23;3.95;;;;;;;;;;4967836;28;20093;-52
2021/08/30 13:42:48;;;;;;;8.77;3.83;;;;;;;;;;4966080;28;20050;-53
2021/08/30 13:45:15;;;;;;;7.43;3.50;;;;;;;;;;4986721;28;20034;-57
2021/08/30 13:47:42;;;;;;;10.07;3.67;;;;;;;;;;4987664;28;20052;-56
2021/08/30 13:50:10;;;;;;;11.27;3.95;;;;;;;;;;4979542;28;20148;-54
2021/08/30 13:52:36;;;;;;;7.18;3.33;;;;;;;;;;4982588;28;20046;-53
2021/08/30 13:55:04;;;;;;;11.10;3.55;;;;;;;;;;4980114;28;20047;-56
2021/08/30 13:57:35;;;;;;;9.75;3.63;;;;;;;;;;4981938;28;20129;-56
2021/08/30 14:00:08;;;;;;;7.50;3.33;;;;;;;;;;4966315;28;20050;-57
2021/08/30 14:02:35;;;;;;;12.27;4.03;;;;;;;;;;4964374;28;20113;-52
2021/08/30 14:05:02;;;;;;;10.82;3.70;;;;;;;;;;5010589;28;20053;-53
2021/08/30 14:07:29;;;;;;;11.98;3.78;;;;;;;;;;5002569;28;20042;-52
2021/08/30 14:09:55;;;;;;;11.93;3.65;;;;;;;;;;4985652;28;20178;-53
2021/08/30 14:12:21;;;;;;;10.20;3.78;;;;;;;;;;4986292;28;20046;-56
2021/08/30 14:14:48;;;;;;;15.07;4.70;;;;;;;;;;5006769;28;20045;-54
2021/08/30 14:17:17;;;;;;;15.48;4.55;;;;;;;;;;5006251;28;20097;-55
2021/08/30 14:19:45;;;;;;;10.13;4.72;;;;;;;;;;5001275;28;20042;-55
2021/08/30 14:22:11;;;;;;;16.52;5.55;;;;;;;;;;5006078;28;20090;-54
2021/08/30 14:24:38;;;;;;;10.00;4.20;;;;;;;;;;5000592;28;20034;-50
2021/08/30 14:27:04;;;;;;;9.15;3.63;;;;;;;;;;5004768;28;20033;-56
2021/08/30 14:29:31;;;;;;;14.63;4.28;;;;;;;;;;5001126;28;20054;-54
2021/08/30 14:31:57;;;;;;;8.90;4.40;;;;;;;;;;5002795;28;20049;-55
2021/08/30 14:34:25;;;;;;;10.48;4.03;;;;;;;;;;4986238;28;20053;-54
2021/08/30 14:36:52;;;;;;;15.82;4.50;;;;;;;;;;4966000;28;20058;-55
2021/08/30 14:39:19;;;;;;;13.60;4.22;;;;;;;;;;4966134;28;20063;-56